createdAt,value
2018-04-26T00:00:28.917Z,67.00
2018-04-26T00:02:57.305Z,67.90
2018-04-26T00:05:25.572Z,68.30
2018-04-26T00:07:53.079Z,68.30
2018-04-26T00:10:20.657Z,68.00
2018-04-26T00:12:48.169Z,68.20
2018-04-26T00:15:15.694Z,68.50
2018-04-26T00:17:43.971Z,68.70
2018-04-26T00:20:12.265Z,68.50
2018-04-26T00:22:39.784Z,68.40
2018-04-26T00:25:07.345Z,68.70
2018-04-26T00:27:35.811Z,68.50
2018-04-26T00:30:03.298Z,68.10
2018-04-26T00:32:31.604Z,68.40
2018-04-26T00:34:59.104Z,68.30
2018-04-26T00:37:26.637Z,68.60
2018-04-26T00:39:54.155Z,68.70
2018-04-26T00:42:22.585Z,69.40
2018-04-26T00:44:50.155Z,69.30
2018-04-26T00:47:17.668Z,69.60
2018-04-26T00:49:45.971Z,69.80
2018-04-26T00:52:13.540Z,69.70
2018-04-26T00:54:41.038Z,69.80
2018-04-26T00:57:08.649Z,69.90
2018-04-26T00:59:36.189Z,70.80
2018-04-26T01:02:03.702Z,70.30
2018-04-26T01:04:31.228Z,70.30
2018-04-26T01:06:58.704Z,70.60
2018-04-26T01:09:26.226Z,70.80
2018-04-26T01:11:53.738Z,71.00
2018-04-26T01:14:21.550Z,71.20
2018-04-26T01:16:49.808Z,71.70
2018-04-26T01:19:18.092Z,72.00
2018-04-26T01:21:45.630Z,72.00
2018-04-26T01:24:13.951Z,72.40
2018-04-26T01:26:41.514Z,72.40
2018-04-26T01:29:09.066Z,72.80
2018-04-26T01:31:36.546Z,73.00
2018-04-26T01:34:04.075Z,73.20
2018-04-26T01:36:43.721Z,73.40
2018-04-26T01:39:11.243Z,73.80
2018-04-26T01:41:39.522Z,74.60
2018-04-26T01:44:07.852Z,74.90
2018-04-26T01:46:35.347Z,74.70
2018-04-26T01:49:02.915Z,74.80
2018-04-26T01:51:31.174Z,75.40
2018-04-26T01:53:58.692Z,75.20
2018-04-26T01:56:26.176Z,75.60
2018-04-26T01:58:53.667Z,75.60
2018-04-26T02:01:21.933Z,75.40
2018-04-26T02:03:49.425Z,75.40
2018-04-26T02:06:16.929Z,75.70
2018-04-26T02:08:44.458Z,76.00
2018-04-26T02:11:11.956Z,76.50
2018-04-26T02:13:39.441Z,76.60
2018-04-26T02:16:07.722Z,77.40
2018-04-26T02:18:36.065Z,77.80
2018-04-26T02:21:03.679Z,77.70
2018-04-26T02:23:31.169Z,78.10
2018-04-26T02:25:58.680Z,78.00
2018-04-26T02:28:27.047Z,78.30
2018-04-26T02:30:55.321Z,78.40
2018-04-26T02:33:23.614Z,79.00
2018-04-26T02:35:51.253Z,78.30
2018-04-26T02:38:18.773Z,78.20
2018-04-26T02:40:46.278Z,78.30
2018-04-26T02:43:14.549Z,78.50
2018-04-26T02:45:43.761Z,78.30
2018-04-26T02:48:12.020Z,78.50
2018-04-26T02:50:39.596Z,78.30
2018-04-26T02:53:07.876Z,78.80
2018-04-26T02:55:35.379Z,78.70
2018-04-26T02:58:03.033Z,78.60
2018-04-26T03:00:30.569Z,78.80
2018-04-26T03:02:58.071Z,78.90
2018-04-26T03:05:25.668Z,78.90
2018-04-26T03:07:54.080Z,79.00
2018-04-26T03:10:21.547Z,79.00
2018-04-26T03:12:49.077Z,79.00
2018-04-26T03:15:17.334Z,78.70
2018-04-26T03:17:45.709Z,79.00
2018-04-26T03:20:13.980Z,79.10
2018-04-26T03:22:41.477Z,79.10
2018-04-26T03:25:08.977Z,79.00
2018-04-26T03:27:36.474Z,79.10
2018-04-26T03:30:04.007Z,79.30
2018-04-26T03:32:32.296Z,79.70
2018-04-26T03:35:00.585Z,79.40
2018-04-26T03:37:28.163Z,79.30
2018-04-26T03:39:56.517Z,79.60
2018-04-26T03:42:24.073Z,79.50
2018-04-26T03:44:52.348Z,79.90
2018-04-26T03:47:20.657Z,80.10
2018-04-26T03:49:48.212Z,80.10
2018-04-26T03:52:15.740Z,79.90
2018-04-26T03:54:44.007Z,80.00
2018-04-26T03:57:11.509Z,79.90
2018-04-26T03:59:50.808Z,79.90
2018-04-26T04:02:31.040Z,80.40
2018-04-26T04:05:10.529Z,80.40
2018-04-26T04:07:38.025Z,80.60
2018-04-26T04:10:05.628Z,80.40
2018-04-26T04:12:33.904Z,80.50
2018-04-26T04:15:02.180Z,80.30
2018-04-26T04:17:29.697Z,80.30
2018-04-26T04:19:57.296Z,80.10
2018-04-26T04:22:25.776Z,80.40
2018-04-26T04:24:54.158Z,80.30
2018-04-26T04:27:22.412Z,80.30
2018-04-26T04:29:49.924Z,80.30
2018-04-26T04:32:17.555Z,80.50
2018-04-26T04:34:45.963Z,80.60
2018-04-26T04:37:13.466Z,80.50
2018-04-26T04:39:41.078Z,80.70
2018-04-26T04:42:08.602Z,80.00
2018-04-26T04:44:36.862Z,80.10
2018-04-26T04:47:04.380Z,80.00
2018-04-26T04:49:31.883Z,80.10
2018-04-26T04:51:59.384Z,81.40
2018-04-26T04:54:26.892Z,82.30
2018-04-26T04:56:54.392Z,83.50
2018-04-26T04:59:21.895Z,84.10
2018-04-26T05:01:49.431Z,84.20
2018-04-26T05:04:16.948Z,84.40
2018-04-26T05:06:45.189Z,84.50
2018-04-26T05:09:12.729Z,84.40
2018-04-26T05:11:40.273Z,84.50
2018-04-26T05:14:07.897Z,84.80
2018-04-26T05:16:36.171Z,85.00
2018-04-26T05:19:04.473Z,85.30
2018-04-26T05:21:31.974Z,85.20
2018-04-26T05:23:59.566Z,85.50
2018-04-26T05:26:27.911Z,85.60
2018-04-26T05:28:55.404Z,85.60
2018-04-26T05:31:23.792Z,85.50
2018-04-26T05:33:52.107Z,85.10
2018-04-26T05:36:19.619Z,85.00
2018-04-26T05:38:47.896Z,85.30
2018-04-26T05:41:16.155Z,85.50
2018-04-26T05:43:43.653Z,85.30
2018-04-26T05:46:11.144Z,85.50
2018-04-26T05:48:38.656Z,84.40
2018-04-26T05:51:06.164Z,82.60
2018-04-26T05:53:33.782Z,80.70
2018-04-26T05:56:01.451Z,79.50
2018-04-26T05:58:28.801Z,78.50
2018-04-26T06:00:56.371Z,77.70
2018-04-26T06:03:23.878Z,77.90
2018-04-26T06:05:51.419Z,78.70
2018-04-26T06:08:18.921Z,78.70
2018-04-26T06:10:46.407Z,78.00
2018-04-26T06:13:13.954Z,76.10
2018-04-26T06:15:41.596Z,75.50
2018-04-26T06:18:09.920Z,73.00
2018-04-26T06:20:37.465Z,72.90
2018-04-26T06:23:05.720Z,73.30
2018-04-26T06:25:33.219Z,74.00
2018-04-26T06:28:00.781Z,75.30
2018-04-26T06:30:28.391Z,76.80
2018-04-26T06:32:55.929Z,77.60
2018-04-26T06:35:24.201Z,78.80
2018-04-26T06:37:52.400Z,78.80
2018-04-26T06:40:20.778Z,79.10
2018-04-26T06:42:49.113Z,79.00
2018-04-26T06:45:16.604Z,79.00
2018-04-26T06:47:44.899Z,79.50
2018-04-26T06:50:13.142Z,79.60
2018-04-26T06:52:40.648Z,79.60
2018-04-26T06:55:08.210Z,79.30
2018-04-26T06:57:35.729Z,79.20
2018-04-26T07:00:04.085Z,79.40
2018-04-26T07:02:31.606Z,79.40
2018-04-26T07:04:59.235Z,78.90
2018-04-26T07:07:27.493Z,78.70
2018-04-26T07:09:55.526Z,78.70
2018-04-26T07:12:23.036Z,78.80
2018-04-26T07:14:52.641Z,78.30
2018-04-26T07:17:21.027Z,77.60
2018-04-26T07:19:49.292Z,77.10
2018-04-26T07:22:16.860Z,77.10
2018-04-26T07:24:44.389Z,76.70
2018-04-26T07:27:11.940Z,74.90
2018-04-26T07:29:39.534Z,73.60
2018-04-26T07:32:07.836Z,73.40
2018-04-26T07:34:35.426Z,73.40
2018-04-26T07:37:02.976Z,73.00
2018-04-26T07:39:30.499Z,73.50
2018-04-26T07:41:58.009Z,72.90
2018-04-26T07:44:25.578Z,71.60
2018-04-26T07:46:53.204Z,71.30
2018-04-26T07:49:20.738Z,71.20
2018-04-26T07:51:48.253Z,70.60
2018-04-26T07:54:16.505Z,69.40
2018-04-26T07:56:44.116Z,69.20
2018-04-26T07:59:12.412Z,67.60
2018-04-26T08:01:39.976Z,67.50
2018-04-26T08:04:08.225Z,66.10
2018-04-26T08:06:36.620Z,66.60
2018-04-26T08:09:04.154Z,66.60
2018-04-26T08:11:32.429Z,67.60
2018-04-26T08:14:00.720Z,68.30
2018-04-26T08:16:28.995Z,68.10
2018-04-26T08:18:57.275Z,68.00
2018-04-26T08:21:25.525Z,67.40
2018-04-26T08:23:54.366Z,67.40
2018-04-26T08:26:21.916Z,66.70
2018-04-26T08:28:49.464Z,68.00
2018-04-26T08:31:17.022Z,66.90
2018-04-26T08:33:44.541Z,66.20
2018-04-26T08:36:12.133Z,64.50
2018-04-26T08:38:39.640Z,64.90
2018-04-26T08:41:07.157Z,64.20
2018-04-26T08:43:35.424Z,64.80
2018-04-26T08:46:03.676Z,61.60
2018-04-26T08:48:31.180Z,61.50
2018-04-26T08:50:58.681Z,60.00
2018-04-26T08:53:26.187Z,57.90
2018-04-26T08:55:53.712Z,55.20
2018-04-26T08:58:22.003Z,56.80
2018-04-26T09:00:50.313Z,57.00
2018-04-26T09:03:17.819Z,57.00
2018-04-26T09:05:46.189Z,54.00
2018-04-26T09:08:13.725Z,53.70
2018-04-26T09:10:41.247Z,50.90
2018-04-26T09:13:09.519Z,47.90
2018-04-26T09:15:37.862Z,48.60
2018-04-26T09:18:06.148Z,50.40
2018-04-26T09:20:34.416Z,51.70
2018-04-26T09:23:02.689Z,53.20
2018-04-26T09:25:30.287Z,53.10
2018-04-26T09:27:57.785Z,54.60
2018-04-26T09:30:25.296Z,52.50
2018-04-26T09:32:52.802Z,54.60
2018-04-26T09:35:20.365Z,54.50
2018-04-26T09:37:47.886Z,56.80
2018-04-26T09:40:15.409Z,57.20
2018-04-26T09:42:43.724Z,57.20
2018-04-26T09:45:11.237Z,57.10
2018-04-26T09:47:39.636Z,58.70
2018-04-26T09:50:07.952Z,59.80
2018-04-26T09:52:35.450Z,59.70
2018-04-26T09:55:03.084Z,60.00
2018-04-26T09:57:31.022Z,62.00
2018-04-26T09:59:58.520Z,58.90
2018-04-26T10:02:26.013Z,58.00
2018-04-26T10:04:54.956Z,56.20
2018-04-26T10:07:22.555Z,56.20
2018-04-26T10:09:51.409Z,54.50
2018-04-26T10:12:18.919Z,54.40
2018-04-26T10:14:46.424Z,53.60
2018-04-26T10:17:13.955Z,53.60
2018-04-26T10:19:41.537Z,53.30
2018-04-26T10:22:09.098Z,52.90
2018-04-26T10:24:36.618Z,53.20
2018-04-26T10:27:04.174Z,53.20
2018-04-26T10:29:31.700Z,55.00
2018-04-26T10:31:59.192Z,54.80
2018-04-26T10:34:26.718Z,52.00
2018-04-26T10:36:55.031Z,51.60
2018-04-26T10:39:22.621Z,51.60
2018-04-26T10:41:50.156Z,51.40
2018-04-26T10:44:17.843Z,52.00
2018-04-26T10:46:45.336Z,52.90
2018-04-26T10:49:14.512Z,53.90
2018-04-26T10:51:42.355Z,53.90
2018-04-26T10:54:09.853Z,55.30
2018-04-26T10:56:37.464Z,55.10
2018-04-26T10:59:05.056Z,55.20
2018-04-26T11:01:32.548Z,55.20
2018-04-26T11:04:00.836Z,55.20
2018-04-26T11:06:28.341Z,55.20
2018-04-26T11:08:55.860Z,56.40
2018-04-26T11:11:23.395Z,57.80
2018-04-26T11:13:50.902Z,56.90
2018-04-26T11:16:18.500Z,54.30
2018-04-26T11:18:46.093Z,54.30
2018-04-26T11:21:13.610Z,52.90
2018-04-26T11:23:41.107Z,52.80
2018-04-26T11:26:08.615Z,52.50
2018-04-26T11:28:36.129Z,51.70
2018-04-26T11:31:03.871Z,51.60
2018-04-26T11:33:31.299Z,52.70
2018-04-26T11:35:58.799Z,53.40
2018-04-26T11:38:26.378Z,54.30
2018-04-26T11:40:54.001Z,54.20
2018-04-26T11:43:22.459Z,53.80
2018-04-26T11:45:50.668Z,53.80
2018-04-26T11:48:18.980Z,52.60
2018-04-26T11:50:46.496Z,52.60
2018-04-26T11:53:15.217Z,53.30
2018-04-26T11:55:42.726Z,53.20
2018-04-26T11:58:10.202Z,52.80
2018-04-26T12:00:38.619Z,53.10
2018-04-26T12:03:06.208Z,53.10
2018-04-26T12:05:33.724Z,52.70
2018-04-26T12:08:01.220Z,53.10
2018-04-26T12:10:28.857Z,53.40
2018-04-26T12:12:56.800Z,52.90
2018-04-26T12:15:24.343Z,52.60
2018-04-26T12:17:51.855Z,51.30
2018-04-26T12:20:19.392Z,50.80
2018-04-26T12:22:46.911Z,50.20
2018-04-26T12:25:15.165Z,50.60
2018-04-26T12:27:42.722Z,50.50
2018-04-26T12:30:10.221Z,50.00
2018-04-26T12:32:37.765Z,48.30
2018-04-26T12:35:06.159Z,46.70
2018-04-26T12:37:33.701Z,46.70
2018-04-26T12:40:02.800Z,49.40
2018-04-26T12:42:31.170Z,49.10
2018-04-26T12:44:58.567Z,49.00
2018-04-26T12:47:26.128Z,48.20
2018-04-26T12:49:53.642Z,49.20
2018-04-26T12:52:21.942Z,51.20
2018-04-26T12:54:49.433Z,51.20
2018-04-26T12:57:16.925Z,49.40
2018-04-26T12:59:45.320Z,48.70
2018-04-26T13:02:13.602Z,48.10
2018-04-26T13:04:41.114Z,48.10
2018-04-26T13:07:08.599Z,49.00
2018-04-26T13:09:37.030Z,49.90
2018-04-26T13:12:04.649Z,49.80
2018-04-26T13:14:32.220Z,49.20
2018-04-26T13:16:59.773Z,46.50
2018-04-26T13:19:28.054Z,45.90
2018-04-26T13:21:56.297Z,46.50
2018-04-26T13:24:23.799Z,46.30
2018-04-26T13:26:51.388Z,45.50
2018-04-26T13:29:18.995Z,45.60
2018-04-26T13:31:47.261Z,46.80
2018-04-26T13:34:15.540Z,46.90
2018-04-26T13:36:43.023Z,47.50
2018-04-26T13:39:10.631Z,46.10
2018-04-26T13:41:38.214Z,46.90
2018-04-26T13:44:05.763Z,47.70
2018-04-26T13:46:33.338Z,50.00
2018-04-26T13:49:01.680Z,45.60
2018-04-26T13:51:29.213Z,45.50
2018-04-26T13:53:56.709Z,43.90
2018-04-26T13:56:24.251Z,44.80
2018-04-26T13:58:51.924Z,45.90
2018-04-26T14:01:19.428Z,46.20
2018-04-26T14:03:47.080Z,44.90
2018-04-26T14:06:15.349Z,43.50
2018-04-26T14:08:43.687Z,44.30
2018-04-26T14:11:11.177Z,44.20
2018-04-26T14:13:38.671Z,45.10
2018-04-26T14:16:06.204Z,46.20
2018-04-26T14:18:34.630Z,44.20
2018-04-26T14:21:03.102Z,45.10
2018-04-26T14:23:30.625Z,45.00
2018-04-26T14:26:00.433Z,43.80
2018-04-26T14:28:29.044Z,44.90
2018-04-26T14:30:56.543Z,44.90
2018-04-26T14:33:24.070Z,46.70
2018-04-26T14:35:51.571Z,47.80
2018-04-26T14:38:19.095Z,49.70
2018-04-26T14:40:46.720Z,49.30
2018-04-26T14:43:14.318Z,50.10
2018-04-26T14:45:41.877Z,50.30
2018-04-26T14:48:09.430Z,51.00
2018-04-26T14:50:36.914Z,51.30
2018-04-26T14:53:05.551Z,51.20
2018-04-26T14:55:34.857Z,50.80
2018-04-26T14:58:02.365Z,50.80
2018-04-26T15:00:29.994Z,48.80
2018-04-26T15:02:58.482Z,48.20
2018-04-26T15:05:26.798Z,46.50
2018-04-26T15:07:54.320Z,48.20
2018-04-26T15:10:21.810Z,48.70
2018-04-26T15:12:49.343Z,47.00
2018-04-26T15:15:16.871Z,46.80
2018-04-26T15:17:44.364Z,46.50
2018-04-26T15:20:11.964Z,47.50
2018-04-26T15:22:39.763Z,49.00
2018-04-26T15:25:08.002Z,49.70
2018-04-26T15:27:36.289Z,51.20
2018-04-26T15:30:04.981Z,52.10
2018-04-26T15:32:32.474Z,52.00
2018-04-26T15:34:59.972Z,52.80
2018-04-26T15:37:28.255Z,54.40
2018-04-26T15:39:56.534Z,57.30
2018-04-26T15:42:25.257Z,58.70
2018-04-26T15:44:53.719Z,58.60
2018-04-26T15:47:21.269Z,59.50
2018-04-26T15:49:48.784Z,60.40
2018-04-26T15:52:17.345Z,62.00
2018-04-26T15:54:56.599Z,62.50
2018-04-26T16:00:49.726Z,62.40
2018-04-26T16:03:29.126Z,62.30
2018-04-26T16:06:08.575Z,62.00
2018-04-26T16:09:00.866Z,61.00
2018-04-26T16:11:40.204Z,61.00
2018-04-26T16:17:42.943Z,60.90
2018-04-26T16:20:18.139Z,61.20
2018-04-26T16:23:03.455Z,61.40
2018-04-26T16:25:52.903Z,62.30
2018-04-26T16:28:38.300Z,63.00
2018-04-26T16:34:43.793Z,64.00
2018-04-26T16:37:29.723Z,65.00
2018-04-26T16:39:57.205Z,65.00
2018-04-26T16:42:24.707Z,64.00
2018-04-26T16:44:53.094Z,61.40
2018-04-26T16:47:20.632Z,61.40
2018-04-26T16:49:48.876Z,59.70
2018-04-26T16:52:16.401Z,59.60
2018-04-26T16:54:43.893Z,59.60
2018-04-26T16:57:11.397Z,59.40
2018-04-26T16:59:39.904Z,59.40
2018-04-26T17:02:07.439Z,58.40
2018-04-26T17:04:35.069Z,61.10
2018-04-26T17:07:02.605Z,75.80
2018-04-26T17:09:30.112Z,72.10
2018-04-26T17:11:57.661Z,65.60
2018-04-26T17:14:25.956Z,65.60
2018-04-26T17:16:53.531Z,65.40
2018-04-26T17:19:21.109Z,65.50
2018-04-26T17:21:48.713Z,60.20
2018-04-26T17:24:16.983Z,59.60
2018-04-26T17:26:45.307Z,58.60
2018-04-26T17:29:12.807Z,57.90
2018-04-26T17:31:40.435Z,58.70
2018-04-26T17:34:07.940Z,59.40
2018-04-26T17:36:36.200Z,60.50
2018-04-26T17:39:03.690Z,60.40
2018-04-26T17:41:31.181Z,61.70
2018-04-26T17:43:58.741Z,63.30
2018-04-26T17:46:26.255Z,62.90
2018-04-26T17:48:54.530Z,60.90
2018-04-26T17:51:22.119Z,60.80
2018-04-26T17:53:49.607Z,63.50
2018-04-26T17:56:17.247Z,61.90
2018-04-26T17:58:44.749Z,62.20
2018-04-26T18:01:12.256Z,61.10
2018-04-26T18:03:39.938Z,62.60
2018-04-26T18:06:07.452Z,63.80
2018-04-26T18:08:35.015Z,63.00
2018-04-26T18:11:02.568Z,63.80
2018-04-26T18:13:30.065Z,64.00
2018-04-26T18:15:57.665Z,64.00
2018-04-26T18:18:25.340Z,64.20
2018-04-26T18:20:53.685Z,65.50
2018-04-26T18:23:22.310Z,65.50
2018-04-26T18:25:50.692Z,67.00
2018-04-26T18:28:18.246Z,67.00
2018-04-26T18:30:46.495Z,67.60
2018-04-26T18:33:14.189Z,67.60
2018-04-26T18:35:42.472Z,68.80
2018-04-26T18:38:10.824Z,68.70
2018-04-26T18:40:39.150Z,70.00
2018-04-26T18:43:09.860Z,70.00
2018-04-26T18:45:35.096Z,71.20
2018-04-26T18:48:02.570Z,71.20
2018-04-26T18:50:30.112Z,71.70
2018-04-26T18:52:57.629Z,71.70
2018-04-26T18:55:25.182Z,72.10
2018-04-26T18:57:53.486Z,72.80
2018-04-26T19:00:21.028Z,72.80
2018-04-26T19:02:48.568Z,73.60
2018-04-26T19:05:16.042Z,74.30
2018-04-26T19:07:44.334Z,74.50
2018-04-26T19:10:11.828Z,74.50
2018-04-26T19:12:39.358Z,75.90
2018-04-26T19:15:06.840Z,76.80
2018-04-26T19:17:34.361Z,76.40
2018-04-26T19:20:02.621Z,77.20
2018-04-26T19:22:30.162Z,77.20
2018-04-26T19:24:58.465Z,77.60
2018-04-26T19:27:25.978Z,77.60
2018-04-26T19:29:53.507Z,77.60
2018-04-26T19:32:21.030Z,77.40
2018-04-26T19:34:49.401Z,77.60
2018-04-26T19:37:17.791Z,78.50
2018-04-26T19:39:46.177Z,79.10
2018-04-26T19:42:13.592Z,79.00
2018-04-26T19:44:41.096Z,78.70
2018-04-26T19:47:08.603Z,77.70
2018-04-26T19:49:36.093Z,77.50
2018-04-26T19:52:04.459Z,77.10
2018-04-26T19:54:32.065Z,77.00
2018-04-26T19:56:59.716Z,77.40
2018-04-26T19:59:27.371Z,78.20
2018-04-26T20:01:54.886Z,78.20
2018-04-26T20:04:22.403Z,78.80
2018-04-26T20:06:49.885Z,78.50
2018-04-26T20:09:17.400Z,78.60
2018-04-26T20:11:46.185Z,78.50
2018-04-26T20:14:13.684Z,79.00
2018-04-26T20:16:41.195Z,79.00
2018-04-26T20:19:09.603Z,79.20
2018-04-26T20:21:37.173Z,79.20
2018-04-26T20:24:04.652Z,79.30
2018-04-26T20:26:32.175Z,79.20
2018-04-26T20:28:59.704Z,79.20
2018-04-26T20:31:27.989Z,79.60
2018-04-26T20:33:56.253Z,80.30
2018-04-26T20:36:24.551Z,81.50
2018-04-26T20:38:52.085Z,81.50
2018-04-26T20:41:20.355Z,83.40
2018-04-26T20:43:47.906Z,83.30
2018-04-26T20:46:15.412Z,83.50
2018-04-26T20:48:42.925Z,84.10
2018-04-26T20:51:11.251Z,83.20
2018-04-26T20:53:39.080Z,83.10
2018-04-26T20:56:07.330Z,83.30
2018-04-26T20:58:36.407Z,83.40
2018-04-26T21:01:03.979Z,83.30
2018-04-26T21:03:31.449Z,83.10
2018-04-26T21:05:58.992Z,83.30
2018-04-26T21:08:26.542Z,84.50
2018-04-26T21:10:54.036Z,85.50
2018-04-26T21:13:21.681Z,85.00
2018-04-26T21:15:49.159Z,84.00
2018-04-26T21:18:17.419Z,85.60
2018-04-26T21:20:44.952Z,84.80
2018-04-26T21:23:12.511Z,84.80
2018-04-26T21:25:40.030Z,83.90
2018-04-26T21:28:08.339Z,84.90
2018-04-26T21:30:35.873Z,84.80
2018-04-26T21:33:03.488Z,84.60
2018-04-26T21:35:31.063Z,84.30
2018-04-26T21:37:58.531Z,83.80
2018-04-26T21:40:26.813Z,85.20
2018-04-26T21:42:54.313Z,85.10
2018-04-26T21:45:21.821Z,85.10
2018-04-26T21:47:50.109Z,83.80
2018-04-26T21:50:23.289Z,83.70
2018-04-26T21:52:57.077Z,83.70
2018-04-26T21:55:31.076Z,82.70
2018-04-26T21:58:04.281Z,82.60
2018-04-26T22:00:37.416Z,82.80
2018-04-26T22:03:04.944Z,84.50
2018-04-26T22:05:46.399Z,85.70
2018-04-26T22:08:13.941Z,85.60
2018-04-26T22:10:41.448Z,85.40
2018-04-26T22:13:09.693Z,84.40
2018-04-26T22:15:37.200Z,84.40
2018-04-26T22:18:04.701Z,84.30
2018-04-26T22:20:32.196Z,85.80
2018-04-26T22:23:00.585Z,87.40
2018-04-26T22:25:28.049Z,87.20
2018-04-26T22:27:55.640Z,87.70
2018-04-26T22:30:23.149Z,88.00
2018-04-26T22:32:51.400Z,88.90
2018-04-26T22:35:18.893Z,88.90
2018-04-26T22:37:46.474Z,88.60
2018-04-26T22:40:13.956Z,88.10
2018-04-26T22:42:41.492Z,87.90
2018-04-26T22:45:09.001Z,87.70
2018-04-26T22:47:36.485Z,88.20
2018-04-26T22:50:04.732Z,88.00
2018-04-26T22:52:32.236Z,88.00
2018-04-26T22:54:59.721Z,88.70
2018-04-26T22:57:27.216Z,89.00
2018-04-26T22:59:55.469Z,89.70
2018-04-26T23:02:22.968Z,89.00
2018-04-26T23:04:51.210Z,86.90
2018-04-26T23:07:18.791Z,86.90
2018-04-26T23:09:47.086Z,86.80
2018-04-26T23:12:15.381Z,87.00
2018-04-26T23:20:39.480Z,87.20
2018-04-26T23:23:06.952Z,87.10
2018-04-26T23:25:34.449Z,87.40
2018-04-26T23:28:01.974Z,88.30
2018-04-26T23:30:29.442Z,88.90
2018-04-26T23:32:57.156Z,89.20
2018-04-26T23:35:25.439Z,88.30
2018-04-26T23:37:52.991Z,88.20
2018-04-26T23:40:21.238Z,88.10
2018-04-26T23:42:48.791Z,88.10
2018-04-26T23:45:16.299Z,87.40
2018-04-26T23:47:44.739Z,87.40
2018-04-26T23:50:12.275Z,87.40
2018-04-26T23:52:40.712Z,87.20
2018-04-26T23:55:08.988Z,87.00
2018-04-26T23:57:37.318Z,87.00
